sensor_id;sensor_type;location;lat;lon;timestamp;pressure;altitude;pressure_sealevel;temperature;humidity
42859;BME280;28505;56.970;40.998;2023-04-04T00:01:53;100006.78;;;4.42;100.00
42859;BME280;28505;56.970;40.998;2023-04-04T00:07:15;100026.69;;;4.35;100.00
42859;BME280;28505;56.970;40.998;2023-04-04T00:12:38;100024.78;;;4.30;100.00
42859;BME280;28505;56.970;40.998;2023-04-04T00:18:11;100017.53;;;4.26;100.00
42859;BME280;28505;56.970;40.998;2023-04-04T00:23:33;99999.97;;;4.08;100.00
42859;BME280;28505;56.970;40.998;2023-04-04T00:28:56;100020.94;;;4.21;100.00
42859;BME280;28505;56.970;40.998;2023-04-04T00:34:18;100018.53;;;4.19;100.00
42859;BME280;28505;56.970;40.998;2023-04-04T00:39:40;100012.63;;;4.17;100.00
42859;BME280;28505;56.970;40.998;2023-04-04T00:45:02;100001.91;;;4.12;100.00
42859;BME280;28505;56.970;40.998;2023-04-04T00:50:24;100019.63;;;4.23;100.00
42859;BME280;28505;56.970;40.998;2023-04-04T00:55:47;100007.84;;;4.19;100.00
42859;BME280;28505;56.970;40.998;2023-04-04T01:01:12;100015.28;;;4.17;100.00
42859;BME280;28505;56.970;40.998;2023-04-04T01:06:34;100007.94;;;4.03;100.00
42859;BME280;28505;56.970;40.998;2023-04-04T01:11:56;100015.75;;;4.09;100.00
42859;BME280;28505;56.970;40.998;2023-04-04T01:17:21;100007.75;;;4.09;100.00
42859;BME280;28505;56.970;40.998;2023-04-04T01:22:45;100011.72;;;4.07;100.00
42859;BME280;28505;56.970;40.998;2023-04-04T01:28:12;100012.00;;;4.10;100.00
42859;BME280;28505;56.970;40.998;2023-04-04T01:33:39;99996.56;;;4.12;100.00
42859;BME280;28505;56.970;40.998;2023-04-04T01:39:13;99989.91;;;4.15;100.00
42859;BME280;28505;56.970;40.998;2023-04-04T01:44:41;99995.63;;;4.23;100.00
42859;BME280;28505;56.970;40.998;2023-04-04T01:50:06;99966.47;;;4.17;100.00
42859;BME280;28505;56.970;40.998;2023-04-04T01:55:29;99977.50;;;4.26;100.00
42859;BME280;28505;56.970;40.998;2023-04-04T02:00:56;99981.31;;;4.35;100.00
42859;BME280;28505;56.970;40.998;2023-04-04T02:06:22;99978.91;;;4.33;100.00
42859;BME280;28505;56.970;40.998;2023-04-04T02:11:49;99991.06;;;4.46;100.00
42859;BME280;28505;56.970;40.998;2023-04-04T02:17:11;99989.28;;;4.57;100.00
42859;BME280;28505;56.970;40.998;2023-04-04T02:22:40;99980.38;;;4.46;100.00
42859;BME280;28505;56.970;40.998;2023-04-04T02:28:04;99972.94;;;4.48;100.00
42859;BME280;28505;56.970;40.998;2023-04-04T02:33:27;99978.81;;;4.50;100.00
42859;BME280;28505;56.970;40.998;2023-04-04T02:38:54;99953.13;;;4.44;100.00
42859;BME280;28505;56.970;40.998;2023-04-04T02:44:22;99963.88;;;4.54;100.00
42859;BME280;28505;56.970;40.998;2023-04-04T02:49:56;99937.06;;;4.39;100.00
42859;BME280;28505;56.970;40.998;2023-04-04T02:55:23;99970.28;;;4.53;100.00
42859;BME280;28505;56.970;40.998;2023-04-04T03:01:19;99959.63;;;4.53;100.00
42859;BME280;28505;56.970;40.998;2023-04-04T03:13:46;99984.31;;;4.65;100.00
42859;BME280;28505;56.970;40.998;2023-04-04T03:19:19;99935.94;;;4.35;100.00
42859;BME280;28505;56.970;40.998;2023-04-04T03:25:34;99985.91;;;4.66;100.00
42859;BME280;28505;56.970;40.998;2023-04-04T03:31:05;99975.63;;;4.53;100.00
42859;BME280;28505;56.970;40.998;2023-04-04T03:36:31;99961.22;;;4.54;100.00
42859;BME280;28505;56.970;40.998;2023-04-04T03:41:57;99961.78;;;4.56;100.00
42859;BME280;28505;56.970;40.998;2023-04-04T03:47:20;99970.88;;;4.60;100.00
42859;BME280;28505;56.970;40.998;2023-04-04T03:52:43;99975.81;;;4.74;100.00
42859;BME280;28505;56.970;40.998;2023-04-04T03:58:06;99950.59;;;4.59;100.00
42859;BME280;28505;56.970;40.998;2023-04-04T04:03:29;99993.28;;;4.86;100.00
42859;BME280;28505;56.970;40.998;2023-04-04T04:08:52;99980.00;;;4.91;100.00
42859;BME280;28505;56.970;40.998;2023-04-04T04:14:16;99971.13;;;4.86;100.00
42859;BME280;28505;56.970;40.998;2023-04-04T04:19:39;99983.28;;;5.04;100.00
42859;BME280;28505;56.970;40.998;2023-04-04T04:25:01;99995.44;;;5.22;100.00
42859;BME280;28505;56.970;40.998;2023-04-04T04:30:34;99985.81;;;5.21;100.00
42859;BME280;28505;56.970;40.998;2023-04-04T04:36:00;99994.97;;;5.30;100.00
42859;BME280;28505;56.970;40.998;2023-04-04T04:41:32;100007.91;;;5.48;100.00
42859;BME280;28505;56.970;40.998;2023-04-04T04:46:55;100004.75;;;5.56;100.00
42859;BME280;28505;56.970;40.998;2023-04-04T04:52:17;100011.75;;;5.62;100.00
42859;BME280;28505;56.970;40.998;2023-04-04T04:57:40;100007.19;;;5.63;100.00
42859;BME280;28505;56.970;40.998;2023-04-04T05:03:09;99984.72;;;5.64;100.00
42859;BME280;28505;56.970;40.998;2023-04-04T05:08:38;99992.03;;;5.79;100.00
42859;BME280;28505;56.970;40.998;2023-04-04T05:14:16;99954.03;;;5.77;100.00
42859;BME280;28505;56.970;40.998;2023-04-04T05:19:49;99959.47;;;5.92;100.00
42859;BME280;28505;56.970;40.998;2023-04-04T05:25:22;99976.41;;;6.13;100.00
42859;BME280;28505;56.970;40.998;2023-04-04T05:30:45;99967.56;;;6.18;100.00
42859;BME280;28505;56.970;40.998;2023-04-04T05:36:19;99972.44;;;6.36;100.00
42859;BME280;28505;56.970;40.998;2023-04-04T05:41:47;99991.47;;;6.50;100.00
42859;BME280;28505;56.970;40.998;2023-04-04T05:47:11;99978.38;;;6.59;100.00
42859;BME280;28505;56.970;40.998;2023-04-04T05:52:38;99985.34;;;6.70;100.00
42859;BME280;28505;56.970;40.998;2023-04-04T05:58:04;99989.13;;;6.79;100.00
42859;BME280;28505;56.970;40.998;2023-04-04T06:03:38;99997.16;;;6.84;100.00
42859;BME280;28505;56.970;40.998;2023-04-04T06:09:05;100002.53;;;6.94;100.00
42859;BME280;28505;56.970;40.998;2023-04-04T06:14:29;100010.56;;;6.99;100.00
42859;BME280;28505;56.970;40.998;2023-04-04T06:19:55;100004.13;;;7.00;100.00
42859;BME280;28505;56.970;40.998;2023-04-04T06:25:43;100003.06;;;7.12;100.00
42859;BME280;28505;56.970;40.998;2023-04-04T06:31:07;100007.34;;;7.18;100.00
42859;BME280;28505;56.970;40.998;2023-04-04T06:36:29;99995.28;;;7.10;100.00
42859;BME280;28505;56.970;40.998;2023-04-04T06:41:55;100007.59;;;7.32;100.00
42859;BME280;28505;56.970;40.998;2023-04-04T06:47:20;99977.59;;;7.19;100.00
42859;BME280;28505;56.970;40.998;2023-04-04T06:52:43;100001.13;;;7.48;100.00
42859;BME280;28505;56.970;40.998;2023-04-04T06:58:08;100007.31;;;7.59;100.00
42859;BME280;28505;56.970;40.998;2023-04-04T07:03:38;99977.28;;;7.46;100.00
42859;BME280;28505;56.970;40.998;2023-04-04T07:09:00;99987.16;;;7.61;100.00
42859;BME280;28505;56.970;40.998;2023-04-04T07:14:38;99970.03;;;7.52;100.00
42859;BME280;28505;56.970;40.998;2023-04-04T07:20:01;99980.44;;;7.69;100.00
42859;BME280;28505;56.970;40.998;2023-04-04T07:25:28;99969.41;;;7.76;100.00
42859;BME280;28505;56.970;40.998;2023-04-04T07:30:51;99972.00;;;7.91;100.00
42859;BME280;28505;56.970;40.998;2023-04-04T07:36:14;99955.91;;;7.91;100.00
42859;BME280;28505;56.970;40.998;2023-04-04T07:41:37;99969.50;;;8.15;100.00
42859;BME280;28505;56.970;40.998;2023-04-04T07:47:01;99976.41;;;8.31;100.00
42859;BME280;28505;56.970;40.998;2023-04-04T07:52:30;99963.19;;;8.45;100.00
42859;BME280;28505;56.970;40.998;2023-04-04T07:57:52;99953.09;;;8.66;100.00
42859;BME280;28505;56.970;40.998;2023-04-04T08:03:16;99953.53;;;8.78;100.00
42859;BME280;28505;56.970;40.998;2023-04-04T08:08:40;99964.09;;;8.99;100.00
42859;BME280;28505;56.970;40.998;2023-04-04T08:14:03;99973.28;;;9.27;100.00
42859;BME280;28505;56.970;40.998;2023-04-04T08:19:26;99957.09;;;9.32;100.00
42859;BME280;28505;56.970;40.998;2023-04-04T08:24:48;99966.09;;;9.70;100.00
42859;BME280;28505;56.970;40.998;2023-04-04T08:30:12;99980.59;;;10.17;100.00
42859;BME280;28505;56.970;40.998;2023-04-04T08:35:34;99978.16;;;10.40;100.00
42859;BME280;28505;56.970;40.998;2023-04-04T08:41:00;99985.81;;;10.70;100.00
42859;BME280;28505;56.970;40.998;2023-04-04T08:51:25;99971.59;;;10.65;100.00
42859;BME280;28505;56.970;40.998;2023-04-04T08:56:51;99949.00;;;10.80;100.00
42859;BME280;28505;56.970;40.998;2023-04-04T09:02:22;99951.34;;;11.00;100.00
42859;BME280;28505;56.970;40.998;2023-04-04T09:07:47;99975.84;;;11.04;99.19
42859;BME280;28505;56.970;40.998;2023-04-04T09:13:11;99952.97;;;10.82;96.58
42859;BME280;28505;56.970;40.998;2023-04-04T09:18:36;99959.03;;;10.93;94.14
42859;BME280;28505;56.970;40.998;2023-04-04T09:24:00;99972.31;;;10.89;88.62
42859;BME280;28505;56.970;40.998;2023-04-04T09:29:22;99972.16;;;10.81;89.46
42859;BME280;28505;56.970;40.998;2023-04-04T09:34:44;99969.63;;;11.03;91.07
42859;BME280;28505;56.970;40.998;2023-04-04T09:40:08;99977.16;;;11.20;91.37
42859;BME280;28505;56.970;40.998;2023-04-04T09:45:34;99977.78;;;11.31;94.82
42859;BME280;28505;56.970;40.998;2023-04-04T09:50:57;99991.41;;;11.53;87.00
42859;BME280;28505;56.970;40.998;2023-04-04T09:56:22;99983.03;;;11.55;84.94
42859;BME280;28505;56.970;40.998;2023-04-04T10:01:44;99988.44;;;11.68;90.68
42859;BME280;28505;56.970;40.998;2023-04-04T10:07:12;99999.03;;;11.79;84.89
42859;BME280;28505;56.970;40.998;2023-04-04T10:12:38;99998.53;;;11.77;82.54
42859;BME280;28505;56.970;40.998;2023-04-04T10:18:01;99993.56;;;11.84;81.05
42859;BME280;28505;56.970;40.998;2023-04-04T10:23:26;99996.47;;;12.01;84.21
42859;BME280;28505;56.970;40.998;2023-04-04T10:28:49;99966.84;;;11.96;79.92
42859;BME280;28505;56.970;40.998;2023-04-04T10:34:14;99994.91;;;12.23;82.68
42859;BME280;28505;56.970;40.998;2023-04-04T10:39:45;100002.00;;;12.32;84.36
42859;BME280;28505;56.970;40.998;2023-04-04T10:45:15;99963.72;;;12.16;85.51
42859;BME280;28505;56.970;40.998;2023-04-04T10:50:42;99979.38;;;12.42;80.89
42859;BME280;28505;56.970;40.998;2023-04-04T10:56:05;99974.13;;;12.59;76.78
42859;BME280;28505;56.970;40.998;2023-04-04T11:01:55;99994.47;;;12.79;69.56
42859;BME280;28505;56.970;40.998;2023-04-04T11:07:18;99996.81;;;12.72;74.65
42859;BME280;28505;56.970;40.998;2023-04-04T11:12:44;100001.22;;;12.91;72.35
42859;BME280;28505;56.970;40.998;2023-04-04T11:18:07;99981.94;;;12.83;70.47
42859;BME280;28505;56.970;40.998;2023-04-04T11:29:49;99989.09;;;13.10;75.08
42859;BME280;28505;56.970;40.998;2023-04-04T11:35:15;99996.75;;;13.08;72.00
42859;BME280;28505;56.970;40.998;2023-04-04T11:40:41;99995.09;;;13.21;71.45
42859;BME280;28505;56.970;40.998;2023-04-04T11:46:06;99999.47;;;13.31;72.00
42859;BME280;28505;56.970;40.998;2023-04-04T11:51:30;99995.06;;;13.44;71.18
42859;BME280;28505;56.970;40.998;2023-04-04T11:56:53;99996.66;;;13.45;68.42
42859;BME280;28505;56.970;40.998;2023-04-04T12:02:19;100003.84;;;13.49;70.44
42859;BME280;28505;56.970;40.998;2023-04-04T12:07:42;100002.09;;;13.53;66.70
42859;BME280;28505;56.970;40.998;2023-04-04T12:13:06;99999.50;;;13.40;68.52
42859;BME280;28505;56.970;40.998;2023-04-04T12:18:28;99997.75;;;13.44;67.39
42859;BME280;28505;56.970;40.998;2023-04-04T12:23:50;100002.72;;;13.50;64.63
42859;BME280;28505;56.970;40.998;2023-04-04T12:29:14;100009.44;;;13.53;68.20
42859;BME280;28505;56.970;40.998;2023-04-04T12:34:41;100006.88;;;13.48;71.34
42859;BME280;28505;56.970;40.998;2023-04-04T12:40:10;100008.69;;;13.30;72.34
42859;BME280;28505;56.970;40.998;2023-04-04T12:45:36;100003.41;;;13.25;71.10
42859;BME280;28505;56.970;40.998;2023-04-04T12:50:59;100007.00;;;13.43;65.89
42859;BME280;28505;56.970;40.998;2023-04-04T12:56:25;100013.94;;;13.57;61.92
42859;BME280;28505;56.970;40.998;2023-04-04T13:01:48;100016.16;;;13.55;63.84
42859;BME280;28505;56.970;40.998;2023-04-04T13:07:39;100011.56;;;13.65;63.86
42859;BME280;28505;56.970;40.998;2023-04-04T13:13:05;100010.47;;;13.66;62.82
42859;BME280;28505;56.970;40.998;2023-04-04T13:18:33;100024.91;;;13.52;61.75
42859;BME280;28505;56.970;40.998;2023-04-04T13:23:58;100016.69;;;13.35;63.97
42859;BME280;28505;56.970;40.998;2023-04-04T13:29:22;100024.66;;;13.18;63.54
42859;BME280;28505;56.970;40.998;2023-04-04T13:34:45;100021.75;;;13.14;63.09
42859;BME280;28505;56.970;40.998;2023-04-04T13:40:11;100038.63;;;13.11;64.42
42859;BME280;28505;56.970;40.998;2023-04-04T13:45:34;100029.94;;;13.00;66.07
42859;BME280;28505;56.970;40.998;2023-04-04T13:50:57;100035.19;;;13.19;64.12
42859;BME280;28505;56.970;40.998;2023-04-04T13:56:19;100024.31;;;13.33;63.32
42859;BME280;28505;56.970;40.998;2023-04-04T14:01:43;100040.00;;;13.22;66.43
42859;BME280;28505;56.970;40.998;2023-04-04T14:07:05;100025.78;;;13.17;65.38
42859;BME280;28505;56.970;40.998;2023-04-04T14:12:28;100025.06;;;13.25;64.74
42859;BME280;28505;56.970;40.998;2023-04-04T14:17:53;100016.31;;;13.05;66.49
42859;BME280;28505;56.970;40.998;2023-04-04T14:23:16;100029.59;;;12.93;65.84
42859;BME280;28505;56.970;40.998;2023-04-04T14:28:42;100040.75;;;12.78;66.51
42859;BME280;28505;56.970;40.998;2023-04-04T14:34:03;100049.06;;;12.45;69.07
42859;BME280;28505;56.970;40.998;2023-04-04T14:39:26;100056.50;;;12.12;71.25
42859;BME280;28505;56.970;40.998;2023-04-04T14:44:48;100050.88;;;11.81;73.18
42859;BME280;28505;56.970;40.998;2023-04-04T14:50:10;100055.03;;;11.59;75.59
42859;BME280;28505;56.970;40.998;2023-04-04T14:55:32;100048.16;;;11.34;77.62
42859;BME280;28505;56.970;40.998;2023-04-04T15:00:54;100062.09;;;11.09;79.54
42859;BME280;28505;56.970;40.998;2023-04-04T15:06:17;100053.84;;;10.81;81.81
42859;BME280;28505;56.970;40.998;2023-04-04T15:11:39;100060.19;;;10.52;84.74
42859;BME280;28505;56.970;40.998;2023-04-04T15:17:02;100067.44;;;10.33;87.15
42859;BME280;28505;56.970;40.998;2023-04-04T15:22:24;100074.16;;;10.12;89.29
42859;BME280;28505;56.970;40.998;2023-04-04T15:27:47;100077.28;;;9.95;90.81
42859;BME280;28505;56.970;40.998;2023-04-04T15:33:09;100076.91;;;9.77;93.58
42859;BME280;28505;56.970;40.998;2023-04-04T15:38:31;100080.91;;;9.56;96.20
42859;BME280;28505;56.970;40.998;2023-04-04T15:43:53;100065.00;;;9.25;99.46
42859;BME280;28505;56.970;40.998;2023-04-04T15:49:15;100074.25;;;9.14;100.00
42859;BME280;28505;56.970;40.998;2023-04-04T15:54:36;100092.31;;;9.08;100.00
42859;BME280;28505;56.970;40.998;2023-04-04T15:59:58;100079.31;;;8.81;100.00
42859;BME280;28505;56.970;40.998;2023-04-04T16:05:21;100066.81;;;8.56;100.00
42859;BME280;28505;56.970;40.998;2023-04-04T16:10:42;100086.47;;;8.52;100.00
42859;BME280;28505;56.970;40.998;2023-04-04T16:16:05;100084.63;;;8.32;100.00
42859;BME280;28505;56.970;40.998;2023-04-04T16:21:29;100090.06;;;8.16;100.00
42859;BME280;28505;56.970;40.998;2023-04-04T16:26:52;100114.22;;;8.16;100.00
42859;BME280;28505;56.970;40.998;2023-04-04T16:32:14;100100.06;;;7.95;100.00
42859;BME280;28505;56.970;40.998;2023-04-04T16:37:36;100106.47;;;7.94;100.00
42859;BME280;28505;56.970;40.998;2023-04-04T16:42:58;100103.81;;;7.84;100.00
42859;BME280;28505;56.970;40.998;2023-04-04T16:48:20;100120.22;;;7.83;100.00
42859;BME280;28505;56.970;40.998;2023-04-04T16:53:41;100124.53;;;7.79;100.00
42859;BME280;28505;56.970;40.998;2023-04-04T16:59:03;100122.91;;;7.72;100.00
42859;BME280;28505;56.970;40.998;2023-04-04T17:04:25;100128.00;;;7.64;100.00
42859;BME280;28505;56.970;40.998;2023-04-04T17:09:47;100122.91;;;7.57;100.00
42859;BME280;28505;56.970;40.998;2023-04-04T17:15:11;100121.31;;;7.51;100.00
42859;BME280;28505;56.970;40.998;2023-04-04T17:20:35;100129.34;;;7.51;100.00
42859;BME280;28505;56.970;40.998;2023-04-04T17:25:59;100118.88;;;7.34;100.00
42859;BME280;28505;56.970;40.998;2023-04-04T17:31:21;100114.59;;;7.28;100.00
42859;BME280;28505;56.970;40.998;2023-04-04T17:36:44;100128.53;;;7.35;100.00
42859;BME280;28505;56.970;40.998;2023-04-04T17:42:06;100138.47;;;7.40;100.00
42859;BME280;28505;56.970;40.998;2023-04-04T17:47:29;100120.50;;;7.25;100.00
42859;BME280;28505;56.970;40.998;2023-04-04T17:52:51;100114.03;;;7.00;100.00
42859;BME280;28505;56.970;40.998;2023-04-04T17:58:13;100147.28;;;7.15;100.00
42859;BME280;28505;56.970;40.998;2023-04-04T18:03:36;100149.16;;;7.09;100.00
42859;BME280;28505;56.970;40.998;2023-04-04T18:08:58;100133.81;;;6.89;100.00
42859;BME280;28505;56.970;40.998;2023-04-04T18:14:22;100127.06;;;6.66;100.00
42859;BME280;28505;56.970;40.998;2023-04-04T18:19:44;100128.94;;;6.61;100.00
42859;BME280;28505;56.970;40.998;2023-04-04T18:25:07;100160.56;;;6.69;100.00
42859;BME280;28505;56.970;40.998;2023-04-04T18:30:30;100129.38;;;6.42;100.00
42859;BME280;28505;56.970;40.998;2023-04-04T18:35:55;100129.09;;;6.39;100.00
42859;BME280;28505;56.970;40.998;2023-04-04T18:41:19;100137.91;;;6.34;100.00
42859;BME280;28505;56.970;40.998;2023-04-04T18:46:41;100140.56;;;6.29;100.00
42859;BME280;28505;56.970;40.998;2023-04-04T18:52:04;100152.13;;;6.40;100.00
42859;BME280;28505;56.970;40.998;2023-04-04T18:57:27;100151.84;;;6.36;100.00
42859;BME280;28505;56.970;40.998;2023-04-04T19:02:52;100144.56;;;6.26;100.00
42859;BME280;28505;56.970;40.998;2023-04-04T19:08:18;100162.50;;;6.26;100.00
42859;BME280;28505;56.970;40.998;2023-04-04T19:13:43;100150.13;;;6.15;100.00
42859;BME280;28505;56.970;40.998;2023-04-04T19:19:06;100157.84;;;6.11;100.00
42859;BME280;28505;56.970;40.998;2023-04-04T19:24:28;100161.03;;;6.03;100.00
42859;BME280;28505;56.970;40.998;2023-04-04T19:29:52;100169.53;;;5.95;100.00
42859;BME280;28505;56.970;40.998;2023-04-04T19:35:19;100183.75;;;5.95;100.00
42859;BME280;28505;56.970;40.998;2023-04-04T19:40:47;100163.50;;;5.77;100.00
42859;BME280;28505;56.970;40.998;2023-04-04T19:46:13;100184.66;;;5.79;100.00
42859;BME280;28505;56.970;40.998;2023-04-04T19:51:38;100176.00;;;5.67;100.00
42859;BME280;28505;56.970;40.998;2023-04-04T19:57:05;100183.22;;;5.66;100.00
42859;BME280;28505;56.970;40.998;2023-04-04T20:07:55;100152.50;;;5.42;100.00
42859;BME280;28505;56.970;40.998;2023-04-04T20:13:17;100183.94;;;5.56;100.00
42859;BME280;28505;56.970;40.998;2023-04-04T20:18:42;100175.19;;;5.39;100.00
42859;BME280;28505;56.970;40.998;2023-04-04T20:24:06;100153.63;;;5.19;100.00
42859;BME280;28505;56.970;40.998;2023-04-04T20:34:51;100182.47;;;5.16;100.00
42859;BME280;28505;56.970;40.998;2023-04-04T20:40:35;100204.16;;;5.20;100.00
42859;BME280;28505;56.970;40.998;2023-04-04T20:45:59;100192.84;;;5.13;100.00
42859;BME280;28505;56.970;40.998;2023-04-04T20:51:26;100197.38;;;5.12;100.00
42859;BME280;28505;56.970;40.998;2023-04-04T20:56:48;100209.56;;;5.03;100.00
42859;BME280;28505;56.970;40.998;2023-04-04T21:02:16;100205.19;;;4.92;100.00
42859;BME280;28505;56.970;40.998;2023-04-04T21:07:41;100197.44;;;4.68;100.00
42859;BME280;28505;56.970;40.998;2023-04-04T21:13:04;100197.31;;;4.58;100.00
42859;BME280;28505;56.970;40.998;2023-04-04T21:18:29;100211.06;;;4.50;100.00
42859;BME280;28505;56.970;40.998;2023-04-04T21:23:53;100203.50;;;4.42;100.00
42859;BME280;28505;56.970;40.998;2023-04-04T21:29:23;100212.50;;;4.36;100.00
42859;BME280;28505;56.970;40.998;2023-04-04T21:34:45;100172.00;;;4.05;100.00
42859;BME280;28505;56.970;40.998;2023-04-04T21:40:08;100208.22;;;4.01;100.00
42859;BME280;28505;56.970;40.998;2023-04-04T21:45:31;100226.84;;;3.96;100.00
42859;BME280;28505;56.970;40.998;2023-04-04T21:50:54;100224.72;;;3.81;100.00
42859;BME280;28505;56.970;40.998;2023-04-04T21:56:17;100213.47;;;3.62;100.00
42859;BME280;28505;56.970;40.998;2023-04-04T22:01:39;100210.13;;;3.38;100.00
42859;BME280;28505;56.970;40.998;2023-04-04T22:07:01;100233.53;;;3.36;100.00
42859;BME280;28505;56.970;40.998;2023-04-04T22:12:23;100230.13;;;3.24;100.00
42859;BME280;28505;56.970;40.998;2023-04-04T22:17:46;100242.06;;;3.21;100.00
42859;BME280;28505;56.970;40.998;2023-04-04T22:23:13;100238.16;;;3.12;100.00
42859;BME280;28505;56.970;40.998;2023-04-04T22:28:37;100226.06;;;2.93;100.00
42859;BME280;28505;56.970;40.998;2023-04-04T22:34:17;100232.28;;;2.98;100.00
42859;BME280;28505;56.970;40.998;2023-04-04T22:39:45;100230.31;;;2.94;100.00
42859;BME280;28505;56.970;40.998;2023-04-04T22:45:23;100240.16;;;2.93;100.00
42859;BME280;28505;56.970;40.998;2023-04-04T22:51:00;100221.59;;;2.81;100.00
42859;BME280;28505;56.970;40.998;2023-04-04T22:56:49;100234.19;;;2.86;100.00
42859;BME280;28505;56.970;40.998;2023-04-04T23:02:48;100220.78;;;2.69;100.00
42859;BME280;28505;56.970;40.998;2023-04-04T23:08:21;100217.25;;;2.52;100.00
42859;BME280;28505;56.970;40.998;2023-04-04T23:14:08;100224.50;;;2.45;100.00
42859;BME280;28505;56.970;40.998;2023-04-04T23:19:51;100226.16;;;2.34;100.00
42859;BME280;28505;56.970;40.998;2023-04-04T23:25:30;100241.19;;;2.28;100.00
42859;BME280;28505;56.970;40.998;2023-04-04T23:30:55;100247.91;;;2.19;100.00
42859;BME280;28505;56.970;40.998;2023-04-04T23:36:18;100230.66;;;1.98;100.00
42859;BME280;28505;56.970;40.998;2023-04-04T23:41:41;100243.94;;;1.98;100.00
42859;BME280;28505;56.970;40.998;2023-04-04T23:47:03;100249.59;;;1.90;100.00
42859;BME280;28505;56.970;40.998;2023-04-04T23:52:31;100253.03;;;1.79;100.00
42859;BME280;28505;56.970;40.998;2023-04-04T23:57:57;100230.00;;;1.61;100.00
